createdAt,value
2016-12-27T00:00:36.575Z,16.93
2016-12-27T00:01:17.166Z,16.89
2016-12-27T00:01:57.721Z,16.86
2016-12-27T00:02:38.298Z,16.79
2016-12-27T00:03:18.877Z,16.83
2016-12-27T00:03:59.451Z,16.76
2016-12-27T00:04:40.009Z,16.84
2016-12-27T00:05:20.586Z,16.71
2016-12-27T00:06:01.176Z,16.76
2016-12-27T00:06:41.747Z,16.84
2016-12-27T00:07:22.314Z,16.79
2016-12-27T00:08:02.897Z,16.84
2016-12-27T00:08:43.467Z,16.76
2016-12-27T00:09:24.040Z,16.87
2016-12-27T00:10:04.622Z,16.81
2016-12-27T00:10:45.197Z,16.87
2016-12-27T00:11:25.767Z,16.86
2016-12-27T00:12:06.345Z,16.99
2016-12-27T00:12:46.899Z,16.93
2016-12-27T00:13:27.473Z,16.79
2016-12-27T00:14:08.044Z,16.79
2016-12-27T00:14:48.624Z,16.93
2016-12-27T00:15:29.200Z,16.96
2016-12-27T00:16:09.763Z,16.83
2016-12-27T00:16:50.343Z,16.78
2016-12-27T00:17:30.928Z,16.72
2016-12-27T00:18:11.504Z,16.74
2016-12-27T00:18:52.078Z,16.71
2016-12-27T00:19:32.645Z,16.74
2016-12-27T00:20:13.223Z,16.76
2016-12-27T00:20:53.794Z,16.71
2016-12-27T00:21:34.367Z,16.78
2016-12-27T00:22:14.939Z,16.76
2016-12-27T00:22:55.519Z,16.96
2016-12-27T00:23:36.090Z,16.78
2016-12-27T00:24:16.681Z,16.74
2016-12-27T00:24:57.247Z,16.71
2016-12-27T00:25:37.824Z,16.74
2016-12-27T00:26:18.428Z,16.61
2016-12-27T00:26:59.016Z,16.74
2016-12-27T00:27:39.578Z,16.76
2016-12-27T00:28:20.171Z,16.66
2016-12-27T00:29:00.745Z,16.71
2016-12-27T00:29:41.321Z,16.69
2016-12-27T00:30:21.920Z,16.74
2016-12-27T00:31:02.485Z,16.84
2016-12-27T00:31:43.053Z,16.83
2016-12-27T00:32:23.629Z,16.74
2016-12-27T00:33:04.208Z,16.79
2016-12-27T00:33:44.778Z,16.79
2016-12-27T00:34:25.354Z,16.76
2016-12-27T00:35:05.927Z,16.69
2016-12-27T00:35:46.503Z,16.75
2016-12-27T00:36:27.080Z,16.66
2016-12-27T00:37:07.663Z,16.66
2016-12-27T00:37:48.243Z,16.79
2016-12-27T00:38:28.821Z,16.69
2016-12-27T00:39:09.399Z,16.74
2016-12-27T00:39:49.962Z,16.72
2016-12-27T00:40:30.535Z,16.76
2016-12-27T00:41:11.111Z,16.79
2016-12-27T00:41:51.691Z,16.83
2016-12-27T00:42:32.275Z,16.75
2016-12-27T00:43:12.851Z,16.74
2016-12-27T00:43:53.423Z,16.81
2016-12-27T00:44:33.996Z,16.83
2016-12-27T00:45:14.573Z,16.87
2016-12-27T00:45:55.147Z,16.81
2016-12-27T00:46:35.723Z,16.86
2016-12-27T00:47:16.295Z,16.94
2016-12-27T00:47:56.864Z,16.84
2016-12-27T00:48:37.455Z,16.86
2016-12-27T00:49:18.041Z,16.75
2016-12-27T00:49:58.618Z,16.74
2016-12-27T00:50:39.189Z,16.81
2016-12-27T00:51:19.764Z,16.71
2016-12-27T00:52:00.341Z,16.75
2016-12-27T00:52:40.913Z,16.84
2016-12-27T00:53:21.480Z,16.81
2016-12-27T00:54:02.057Z,16.79
2016-12-27T00:54:42.647Z,16.76
2016-12-27T00:55:23.216Z,16.78
2016-12-27T00:56:03.802Z,16.76
2016-12-27T00:56:44.368Z,16.79
2016-12-27T00:57:24.946Z,16.76
2016-12-27T00:58:05.518Z,16.76
2016-12-27T00:58:46.091Z,16.79
2016-12-27T00:59:26.657Z,16.72
2016-12-27T01:00:07.239Z,16.74
2016-12-27T01:00:47.818Z,16.75
2016-12-27T01:01:28.393Z,16.66
2016-12-27T01:02:08.966Z,16.74
2016-12-27T01:02:49.539Z,16.74
2016-12-27T01:03:30.115Z,16.65
2016-12-27T01:04:10.689Z,16.79
2016-12-27T01:04:51.248Z,16.79
2016-12-27T01:05:31.858Z,16.76
2016-12-27T01:06:12.434Z,16.74
2016-12-27T01:06:53.102Z,16.58
2016-12-27T01:07:33.685Z,16.57
2016-12-27T01:08:14.267Z,16.57
2016-12-27T01:08:54.835Z,16.61
2016-12-27T01:09:35.428Z,16.69
2016-12-27T01:10:16.041Z,16.75
2016-12-27T01:10:56.597Z,16.72
2016-12-27T01:11:37.163Z,16.79
2016-12-27T01:12:17.744Z,16.87
2016-12-27T01:12:58.315Z,16.87
2016-12-27T01:13:38.893Z,16.83
2016-12-27T01:14:19.481Z,16.79
2016-12-27T01:15:00.027Z,16.79
2016-12-27T01:15:40.620Z,16.76
2016-12-27T01:16:21.205Z,16.89
2016-12-27T01:17:01.770Z,16.86
2016-12-27T01:17:42.344Z,16.84
2016-12-27T01:18:22.927Z,16.83
2016-12-27T01:19:03.489Z,16.93
2016-12-27T01:19:44.065Z,16.94
2016-12-27T01:20:24.636Z,16.99
2016-12-27T01:21:05.215Z,16.94
2016-12-27T01:21:45.805Z,16.93
2016-12-27T01:22:26.379Z,16.96
2016-12-27T01:23:06.969Z,16.93
2016-12-27T01:23:47.540Z,16.84
2016-12-27T01:24:28.120Z,16.89
2016-12-27T01:25:08.694Z,16.93
2016-12-27T01:25:49.267Z,16.91
2016-12-27T01:26:29.835Z,16.84
2016-12-27T01:27:10.410Z,16.96
2016-12-27T01:27:50.981Z,16.9
2016-12-27T01:28:31.562Z,16.97
2016-12-27T01:29:12.141Z,16.96
2016-12-27T01:29:52.714Z,17.01
2016-12-27T01:30:33.274Z,17.02
2016-12-27T01:31:13.860Z,17.01
2016-12-27T01:31:54.440Z,16.9
2016-12-27T01:32:35.003Z,16.89
2016-12-27T01:33:15.570Z,17.01
2016-12-27T01:33:56.144Z,16.87
2016-12-27T01:34:36.724Z,16.9
2016-12-27T01:35:17.305Z,16.9
2016-12-27T01:35:57.878Z,16.87
2016-12-27T01:36:38.463Z,16.93
2016-12-27T01:37:19.035Z,16.9
2016-12-27T01:37:59.614Z,16.94
2016-12-27T01:38:40.173Z,16.87
2016-12-27T01:39:20.750Z,16.79
2016-12-27T01:40:01.323Z,16.96
2016-12-27T01:40:41.896Z,16.94
2016-12-27T01:41:22.457Z,16.84
2016-12-27T01:42:03.027Z,16.94
2016-12-27T01:42:43.599Z,16.84
2016-12-27T01:43:24.182Z,17.01
2016-12-27T01:44:04.751Z,16.84
2016-12-27T01:44:45.321Z,16.93
2016-12-27T01:45:25.892Z,17.01
2016-12-27T01:46:06.459Z,16.93
2016-12-27T01:46:47.029Z,16.84
2016-12-27T01:47:27.607Z,17.02
2016-12-27T01:48:08.178Z,16.89
2016-12-27T01:48:48.752Z,17.06
2016-12-27T01:49:29.333Z,16.93
2016-12-27T01:50:09.912Z,17.02
2016-12-27T01:50:50.491Z,16.84
2016-12-27T01:51:31.068Z,16.96
2016-12-27T01:52:11.668Z,16.94
2016-12-27T01:52:52.226Z,17.02
2016-12-27T01:53:32.804Z,16.96
2016-12-27T01:54:13.386Z,16.94
2016-12-27T01:54:53.949Z,16.94
2016-12-27T01:55:34.534Z,16.91
2016-12-27T01:56:15.101Z,16.96
2016-12-27T01:56:55.681Z,16.94
2016-12-27T01:57:36.253Z,17.01
2016-12-27T01:58:16.834Z,16.93
2016-12-27T01:58:57.407Z,16.99
2016-12-27T01:59:37.980Z,16.91
2016-12-27T02:00:18.550Z,16.93
2016-12-27T02:00:59.121Z,16.9
2016-12-27T02:01:39.700Z,17.04
2016-12-27T02:02:20.278Z,16.97
2016-12-27T02:03:00.862Z,16.96
2016-12-27T02:03:41.433Z,17.04
2016-12-27T02:04:22.018Z,16.93
2016-12-27T02:05:02.588Z,16.93
2016-12-27T02:05:43.167Z,17.04
2016-12-27T02:06:23.751Z,17.01
2016-12-27T02:07:04.323Z,17.01
2016-12-27T02:07:44.906Z,17.04
2016-12-27T02:08:25.469Z,16.99
2016-12-27T02:09:06.047Z,16.91
2016-12-27T02:09:46.621Z,17.02
2016-12-27T02:10:27.195Z,16.99
2016-12-27T02:11:07.771Z,16.96
2016-12-27T02:11:48.340Z,16.93
2016-12-27T02:12:28.914Z,17.02
2016-12-27T02:13:09.488Z,16.9
2016-12-27T02:13:50.066Z,17.02
2016-12-27T02:14:30.640Z,17.02
2016-12-27T02:15:11.202Z,16.9
2016-12-27T02:15:51.784Z,16.93
2016-12-27T02:16:32.355Z,17.04
2016-12-27T02:17:12.931Z,16.94
2016-12-27T02:17:53.504Z,16.99
2016-12-27T02:18:34.085Z,16.96
2016-12-27T02:19:14.645Z,17.06
2016-12-27T02:19:55.208Z,17.01
2016-12-27T02:20:35.824Z,16.97
2016-12-27T02:21:16.394Z,16.99
2016-12-27T02:21:56.963Z,16.96
2016-12-27T02:22:37.542Z,16.9
2016-12-27T02:23:18.115Z,17.02
2016-12-27T02:23:58.693Z,16.99
2016-12-27T02:24:39.268Z,16.93
2016-12-27T02:25:19.862Z,16.96
2016-12-27T02:26:00.433Z,17.02
2016-12-27T02:26:41.006Z,16.87
2016-12-27T02:27:21.586Z,16.91
2016-12-27T02:28:02.166Z,16.93
2016-12-27T02:28:42.734Z,17.01
2016-12-27T02:29:23.303Z,16.9
2016-12-27T02:30:03.875Z,17.01
2016-12-27T02:30:44.452Z,17.02
2016-12-27T02:31:25.035Z,17.02
2016-12-27T02:32:05.606Z,16.9
2016-12-27T02:32:46.182Z,16.93
2016-12-27T02:33:26.756Z,16.86
2016-12-27T02:34:07.336Z,16.96
2016-12-27T02:34:47.903Z,16.91
2016-12-27T02:35:28.472Z,16.99
2016-12-27T02:36:09.041Z,16.94
2016-12-27T02:36:49.611Z,16.93
2016-12-27T02:37:30.188Z,16.87
2016-12-27T02:38:10.774Z,16.81
2016-12-27T02:38:51.351Z,16.99
2016-12-27T02:39:31.939Z,16.81
2016-12-27T02:40:12.520Z,16.94
2016-12-27T02:40:53.091Z,16.91
2016-12-27T02:41:33.667Z,17.01
2016-12-27T02:42:14.244Z,16.94
2016-12-27T02:42:54.807Z,16.94
2016-12-27T02:43:35.372Z,16.84
2016-12-27T02:44:15.950Z,16.99
2016-12-27T02:44:56.523Z,16.84
2016-12-27T02:45:37.106Z,16.97
2016-12-27T02:46:17.667Z,16.84
2016-12-27T02:46:58.247Z,16.9
2016-12-27T02:47:38.813Z,16.86
2016-12-27T02:48:19.390Z,16.94
2016-12-27T02:48:59.982Z,16.9
2016-12-27T02:49:40.543Z,16.94
2016-12-27T02:50:21.108Z,16.86
2016-12-27T02:51:01.691Z,16.9
2016-12-27T02:51:42.264Z,16.93
2016-12-27T02:52:22.831Z,16.96
2016-12-27T02:53:03.414Z,16.93
2016-12-27T02:53:44.002Z,16.91
2016-12-27T02:54:24.562Z,16.97
2016-12-27T02:55:05.140Z,16.91
2016-12-27T02:55:45.719Z,16.96
2016-12-27T02:56:26.278Z,16.99
2016-12-27T02:57:06.857Z,16.9
2016-12-27T02:57:47.428Z,16.97
2016-12-27T02:58:28.003Z,16.91
2016-12-27T02:59:08.565Z,16.87
2016-12-27T02:59:49.130Z,16.87
2016-12-27T03:00:29.712Z,16.93
2016-12-27T03:01:10.282Z,16.99
2016-12-27T03:01:50.858Z,16.93
2016-12-27T03:02:31.423Z,16.91
2016-12-27T03:03:12.004Z,17.04
2016-12-27T03:03:52.578Z,17.04
2016-12-27T03:04:33.158Z,16.91
2016-12-27T03:05:13.725Z,17.04
2016-12-27T03:05:54.307Z,17.04
2016-12-27T03:06:34.879Z,17.06
2016-12-27T03:07:15.454Z,17.05
2016-12-27T03:07:56.032Z,16.99
2016-12-27T03:08:36.612Z,17.02
2016-12-27T03:09:17.198Z,17.05
2016-12-27T03:09:57.781Z,17.06
2016-12-27T03:10:38.347Z,17.08
2016-12-27T03:11:18.913Z,16.87
2016-12-27T03:11:59.486Z,16.97
2016-12-27T03:12:40.057Z,17.01
2016-12-27T03:13:20.625Z,16.96
2016-12-27T03:14:01.199Z,16.91
2016-12-27T03:14:41.770Z,16.93
2016-12-27T03:15:22.349Z,16.96
2016-12-27T03:16:02.939Z,16.96
2016-12-27T03:16:43.541Z,16.96
2016-12-27T03:17:24.108Z,17.05
2016-12-27T03:18:04.680Z,17.05
2016-12-27T03:18:45.255Z,17.09
2016-12-27T03:19:25.832Z,17.2
2016-12-27T03:20:06.400Z,17.11
2016-12-27T03:20:46.980Z,17.14
2016-12-27T03:21:27.550Z,17.09
2016-12-27T03:22:08.135Z,17.05
2016-12-27T03:22:48.711Z,17.05
2016-12-27T03:23:29.280Z,17.15
2016-12-27T03:24:09.857Z,17.2
2016-12-27T03:24:50.432Z,17.11
2016-12-27T03:25:31.017Z,17.12
2016-12-27T03:26:11.604Z,17.01
2016-12-27T03:26:52.179Z,17.06
2016-12-27T03:27:32.751Z,17.09
2016-12-27T03:28:13.321Z,17.14
2016-12-27T03:28:53.889Z,17.12
2016-12-27T03:29:34.460Z,17.05
2016-12-27T03:30:15.038Z,17.08
2016-12-27T03:30:55.603Z,16.96
2016-12-27T03:31:36.180Z,16.93
2016-12-27T03:32:16.764Z,16.99
2016-12-27T03:32:57.326Z,17.02
2016-12-27T03:33:37.915Z,17.09
2016-12-27T03:34:18.496Z,17.04
2016-12-27T03:34:59.066Z,16.99
2016-12-27T03:35:39.641Z,17.05
2016-12-27T03:36:20.210Z,16.99
2016-12-27T03:37:00.781Z,16.96
2016-12-27T03:37:41.351Z,17.04
2016-12-27T03:38:21.923Z,17.06
2016-12-27T03:39:02.500Z,17.04
2016-12-27T03:39:43.073Z,17.04
2016-12-27T03:40:23.646Z,17.08
2016-12-27T03:41:04.214Z,17.09
2016-12-27T03:41:44.796Z,17.04
2016-12-27T03:42:25.371Z,17.06
2016-12-27T03:43:05.946Z,17.11
2016-12-27T03:43:46.519Z,16.99
2016-12-27T03:44:27.101Z,16.97
2016-12-27T03:45:07.678Z,16.94
2016-12-27T03:45:48.244Z,16.99
2016-12-27T03:46:28.813Z,17.02
2016-12-27T03:47:09.375Z,16.94
2016-12-27T03:47:49.956Z,16.96
2016-12-27T03:48:30.522Z,16.99
2016-12-27T03:49:11.099Z,17.09
2016-12-27T03:49:51.685Z,17.04
2016-12-27T03:50:32.252Z,17.16
2016-12-27T03:51:12.829Z,17.16
2016-12-27T03:51:53.408Z,17.05
2016-12-27T03:52:33.991Z,17.02
2016-12-27T03:53:14.552Z,17.04
2016-12-27T03:53:55.135Z,17.11
2016-12-27T03:54:35.706Z,17.06
2016-12-27T03:55:16.274Z,17.04
2016-12-27T03:55:56.850Z,17.05
2016-12-27T03:56:37.431Z,17.05
2016-12-27T03:57:18.006Z,17.05
2016-12-27T03:57:58.575Z,17.06
2016-12-27T03:58:39.145Z,17.09
2016-12-27T03:59:19.717Z,17.09
2016-12-27T04:00:00.278Z,17.05
2016-12-27T04:00:40.857Z,17.06
2016-12-27T04:01:21.433Z,17.02
2016-12-27T04:02:02.005Z,17.05
2016-12-27T04:02:42.574Z,17.04
2016-12-27T04:03:23.148Z,17.06
2016-12-27T04:04:03.728Z,17.04
2016-12-27T04:04:44.297Z,17.01
2016-12-27T04:05:24.871Z,16.99
2016-12-27T04:06:05.446Z,17.02
2016-12-27T04:06:46.030Z,17.08
2016-12-27T04:07:26.624Z,16.99
2016-12-27T04:08:07.198Z,17.08
2016-12-27T04:08:47.772Z,17.04
2016-12-27T04:09:28.341Z,17.11
2016-12-27T04:10:08.917Z,17.01
2016-12-27T04:10:49.488Z,17.06
2016-12-27T04:11:30.067Z,17.09
2016-12-27T04:12:10.638Z,17.11
2016-12-27T04:12:51.218Z,17.08
2016-12-27T04:13:31.791Z,16.99
2016-12-27T04:14:12.360Z,17.09
2016-12-27T04:14:52.936Z,17.12
2016-12-27T04:15:33.505Z,17.09
2016-12-27T04:16:14.091Z,17.05
2016-12-27T04:16:54.667Z,17.06
2016-12-27T04:17:35.239Z,17.05
2016-12-27T04:18:15.813Z,17.02
2016-12-27T04:18:56.380Z,17.01
2016-12-27T04:19:36.959Z,17.12
2016-12-27T04:20:17.541Z,17.09
2016-12-27T04:20:58.108Z,16.99
2016-12-27T04:21:38.686Z,17.02
2016-12-27T04:22:19.275Z,17.08
2016-12-27T04:22:59.828Z,17.02
2016-12-27T04:23:40.400Z,16.91
2016-12-27T04:24:20.964Z,16.91
2016-12-27T04:25:01.529Z,17.02
2016-12-27T04:25:42.109Z,17.01
2016-12-27T04:26:22.680Z,16.97
2016-12-27T04:27:03.254Z,16.9
2016-12-27T04:27:43.835Z,16.86
2016-12-27T04:28:24.408Z,16.97
2016-12-27T04:29:04.980Z,16.91
2016-12-27T04:29:45.572Z,16.96
2016-12-27T04:30:26.143Z,16.89
2016-12-27T04:31:06.712Z,16.94
2016-12-27T04:31:47.283Z,17.08
2016-12-27T04:32:27.860Z,17.06
2016-12-27T04:33:08.427Z,16.93
2016-12-27T04:33:48.999Z,16.9
2016-12-27T04:34:29.566Z,16.97
2016-12-27T04:35:10.138Z,17.01
2016-12-27T04:35:50.716Z,17.05
2016-12-27T04:36:31.273Z,16.99
2016-12-27T04:37:11.863Z,17.04
2016-12-27T04:37:52.445Z,16.96
2016-12-27T04:38:33.008Z,16.97
2016-12-27T04:39:13.584Z,17.01
2016-12-27T04:39:54.159Z,16.94
2016-12-27T04:40:34.738Z,16.91
2016-12-27T04:41:15.304Z,16.93
2016-12-27T04:41:55.890Z,16.96
2016-12-27T04:42:36.479Z,16.93
2016-12-27T04:43:17.054Z,16.91
2016-12-27T04:43:57.633Z,16.99
2016-12-27T04:44:38.211Z,16.9
2016-12-27T04:45:18.785Z,16.97
2016-12-27T04:45:59.360Z,16.84
2016-12-27T04:46:39.951Z,16.94
2016-12-27T04:47:20.514Z,17.04
2016-12-27T04:48:01.097Z,16.96
2016-12-27T04:48:41.668Z,16.97
2016-12-27T04:49:22.244Z,17.02
2016-12-27T04:50:02.824Z,16.84
2016-12-27T04:50:43.396Z,16.83
2016-12-27T04:51:23.968Z,17.01
2016-12-27T04:52:04.541Z,16.94
2016-12-27T04:52:45.120Z,16.96
2016-12-27T04:53:25.698Z,16.86
2016-12-27T04:54:06.276Z,16.91
2016-12-27T04:54:46.857Z,16.84
2016-12-27T04:55:27.435Z,17.01
2016-12-27T04:56:07.982Z,17.01
2016-12-27T04:56:48.571Z,16.96
2016-12-27T04:57:29.149Z,17.01
2016-12-27T04:58:09.720Z,16.89
2016-12-27T04:58:50.289Z,16.9
2016-12-27T04:59:30.867Z,16.97
2016-12-27T05:00:11.446Z,16.89
2016-12-27T05:00:52.018Z,17.06
2016-12-27T05:01:32.592Z,16.94
2016-12-27T05:02:13.175Z,16.86
2016-12-27T05:02:53.755Z,16.94
2016-12-27T05:03:34.314Z,16.96
2016-12-27T05:04:14.905Z,17.02
2016-12-27T05:04:55.478Z,16.93
2016-12-27T05:05:36.051Z,17.02
2016-12-27T05:06:16.637Z,16.93
2016-12-27T05:06:57.210Z,16.84
2016-12-27T05:07:37.781Z,16.91
2016-12-27T05:08:18.360Z,16.97
2016-12-27T05:08:58.937Z,17.05
2016-12-27T05:09:39.518Z,16.99
2016-12-27T05:10:20.094Z,17.04
2016-12-27T05:11:00.672Z,17.01
2016-12-27T05:11:41.245Z,16.99
2016-12-27T05:12:21.827Z,17.04
2016-12-27T05:13:02.401Z,16.96
2016-12-27T05:13:42.975Z,16.91
2016-12-27T05:14:23.549Z,16.91
2016-12-27T05:15:04.116Z,16.84
2016-12-27T05:15:44.697Z,16.96
2016-12-27T05:16:25.269Z,16.89
2016-12-27T05:17:05.842Z,16.91
2016-12-27T05:17:46.415Z,17.06
2016-12-27T05:18:26.985Z,16.99
2016-12-27T05:19:07.568Z,16.9
2016-12-27T05:19:48.139Z,16.91
2016-12-27T05:20:28.716Z,16.97
2016-12-27T05:21:09.281Z,16.93
2016-12-27T05:21:49.862Z,16.94
2016-12-27T05:22:30.434Z,16.93
2016-12-27T05:23:11.008Z,16.83
2016-12-27T05:23:51.584Z,17.01
2016-12-27T05:24:32.153Z,16.87
2016-12-27T05:25:12.738Z,16.93
2016-12-27T05:25:53.314Z,16.93
2016-12-27T05:26:33.888Z,17.01
2016-12-27T05:27:14.468Z,16.99
2016-12-27T05:27:55.049Z,16.99
2016-12-27T05:28:35.610Z,16.87
2016-12-27T05:29:16.187Z,16.89
2016-12-27T05:29:56.754Z,16.86
2016-12-27T05:30:37.336Z,16.91
2016-12-27T05:31:17.901Z,17.04
2016-12-27T05:31:58.473Z,16.96
2016-12-27T05:32:39.055Z,16.84
2016-12-27T05:33:19.630Z,16.93
2016-12-27T05:34:00.205Z,17.06
2016-12-27T05:34:40.782Z,17.01
2016-12-27T05:35:21.351Z,16.97
2016-12-27T05:36:01.920Z,16.97
2016-12-27T05:36:42.505Z,16.99
2016-12-27T05:37:23.092Z,16.96
2016-12-27T05:38:03.692Z,16.94
2016-12-27T05:38:44.272Z,16.87
2016-12-27T05:39:24.837Z,16.94
2016-12-27T05:40:05.399Z,17.02
2016-12-27T05:40:45.988Z,16.97
2016-12-27T05:41:26.567Z,16.84
2016-12-27T05:42:07.139Z,16.87
2016-12-27T05:42:47.715Z,16.83
2016-12-27T05:43:28.294Z,16.94
2016-12-27T05:44:08.865Z,17.01
2016-12-27T05:44:49.438Z,16.91
2016-12-27T05:45:30.017Z,16.97
2016-12-27T05:46:10.587Z,17.02
2016-12-27T05:46:51.163Z,16.9
2016-12-27T05:47:31.736Z,16.84
2016-12-27T05:48:12.307Z,16.84
2016-12-27T05:48:52.880Z,16.93
2016-12-27T05:49:33.450Z,16.97
2016-12-27T05:50:14.023Z,16.94
2016-12-27T05:50:54.596Z,16.96
2016-12-27T05:51:35.171Z,16.86
2016-12-27T05:52:15.738Z,17.01
2016-12-27T05:52:56.316Z,16.96
2016-12-27T05:53:36.885Z,16.97
2016-12-27T05:54:17.462Z,16.94
2016-12-27T05:54:58.021Z,16.91
2016-12-27T05:55:38.607Z,17.01
2016-12-27T05:56:19.192Z,16.99
2016-12-27T05:56:59.769Z,16.84
2016-12-27T05:57:40.344Z,16.79
2016-12-27T05:58:20.916Z,16.97
2016-12-27T05:59:01.487Z,16.96
2016-12-27T05:59:42.072Z,16.84
2016-12-27T06:00:22.640Z,16.93
2016-12-27T06:01:03.209Z,16.89
2016-12-27T06:01:43.782Z,16.84
2016-12-27T06:02:24.359Z,16.84
2016-12-27T06:03:04.929Z,16.94
2016-12-27T06:03:45.521Z,17.01
2016-12-27T06:04:26.094Z,16.89
2016-12-27T06:05:06.672Z,16.84
2016-12-27T06:05:47.249Z,16.94
2016-12-27T06:06:27.828Z,16.9
2016-12-27T06:07:08.403Z,16.91
2016-12-27T06:07:48.987Z,16.75
2016-12-27T06:08:29.553Z,16.83
2016-12-27T06:09:10.127Z,16.74
2016-12-27T06:09:50.703Z,16.83
2016-12-27T06:10:31.290Z,16.81
2016-12-27T06:11:11.858Z,16.91
2016-12-27T06:11:52.418Z,16.9
2016-12-27T06:12:32.995Z,16.93
2016-12-27T06:13:13.572Z,16.93
2016-12-27T06:13:54.145Z,16.87
2016-12-27T06:14:34.710Z,17.02
2016-12-27T06:15:15.288Z,16.91
2016-12-27T06:15:55.871Z,16.93
2016-12-27T06:16:36.444Z,16.93
2016-12-27T06:17:17.024Z,16.89
2016-12-27T06:17:57.596Z,16.84
2016-12-27T06:18:38.166Z,16.84
2016-12-27T06:19:18.750Z,16.84
2016-12-27T06:19:59.321Z,17.01
2016-12-27T06:20:39.888Z,16.83
2016-12-27T06:21:20.470Z,16.76
2016-12-27T06:22:01.048Z,16.94
2016-12-27T06:22:41.623Z,16.79
2016-12-27T06:23:22.197Z,16.76
2016-12-27T06:24:02.770Z,16.75
2016-12-27T06:24:43.344Z,16.89
2016-12-27T06:25:23.916Z,16.9
2016-12-27T06:26:04.498Z,16.87
2016-12-27T06:26:45.073Z,16.78
2016-12-27T06:27:25.633Z,16.83
2016-12-27T06:28:06.218Z,16.79
2016-12-27T06:28:46.812Z,16.9
2016-12-27T06:29:27.399Z,16.79
2016-12-27T06:30:07.977Z,16.87
2016-12-27T06:30:48.541Z,16.78
2016-12-27T06:31:29.107Z,16.81
2016-12-27T06:32:09.684Z,16.76
2016-12-27T06:32:50.265Z,16.79
2016-12-27T06:33:30.836Z,16.99
2016-12-27T06:34:11.396Z,16.93
2016-12-27T06:34:51.956Z,16.96
2016-12-27T06:35:32.598Z,16.81
2016-12-27T06:36:13.163Z,16.83
2016-12-27T06:36:53.736Z,16.79
2016-12-27T06:37:34.312Z,16.76
2016-12-27T06:38:14.888Z,16.81
2016-12-27T06:38:55.465Z,16.81
2016-12-27T06:39:36.043Z,16.84
2016-12-27T06:40:16.617Z,16.83
2016-12-27T06:40:57.190Z,16.93
2016-12-27T06:41:37.753Z,16.81
2016-12-27T06:42:18.334Z,16.78
2016-12-27T06:42:58.904Z,16.74
2016-12-27T06:43:39.494Z,16.84
2016-12-27T06:44:20.070Z,16.9
2016-12-27T06:45:00.638Z,16.78
2016-12-27T06:45:41.210Z,16.81
2016-12-27T06:46:21.787Z,16.79
2016-12-27T06:47:02.372Z,16.86
2016-12-27T06:47:42.948Z,16.83
2016-12-27T06:48:23.526Z,16.89
2016-12-27T06:49:04.102Z,16.94
2016-12-27T06:49:44.672Z,16.84
2016-12-27T06:50:25.240Z,16.79
2016-12-27T06:51:05.819Z,16.87
2016-12-27T06:51:46.390Z,16.84
2016-12-27T06:52:26.961Z,16.9
2016-12-27T06:53:07.530Z,16.81
2016-12-27T06:53:48.097Z,16.9
2016-12-27T06:54:28.678Z,16.76
2016-12-27T06:55:09.264Z,16.94
2016-12-27T06:55:49.830Z,16.83
2016-12-27T06:56:30.390Z,16.89
2016-12-27T06:57:10.970Z,16.93
2016-12-27T06:57:51.550Z,16.81
2016-12-27T06:58:32.131Z,16.86
2016-12-27T06:59:12.701Z,16.79
2016-12-27T06:59:53.280Z,16.91
2016-12-27T07:00:33.850Z,16.93
2016-12-27T07:01:14.433Z,16.76
2016-12-27T07:01:55.014Z,16.89
2016-12-27T07:02:35.589Z,16.76
2016-12-27T07:03:16.158Z,16.87
2016-12-27T07:03:56.732Z,16.93
2016-12-27T07:04:37.306Z,16.9
2016-12-27T07:05:17.887Z,16.86
2016-12-27T07:05:58.469Z,16.79
2016-12-27T07:06:39.051Z,16.79
2016-12-27T07:07:19.623Z,16.78
2016-12-27T07:08:00.191Z,16.69
2016-12-27T07:08:40.766Z,16.84
2016-12-27T07:09:21.333Z,16.89
2016-12-27T07:10:01.904Z,16.75
2016-12-27T07:10:42.478Z,16.84
2016-12-27T07:11:23.047Z,16.96
2016-12-27T07:12:03.644Z,16.97
2016-12-27T07:12:44.203Z,16.96
2016-12-27T07:13:24.778Z,17.01
2016-12-27T07:14:05.372Z,16.96
2016-12-27T07:14:45.938Z,16.81
2016-12-27T07:15:26.509Z,16.87
2016-12-27T07:16:07.083Z,16.79
2016-12-27T07:16:47.654Z,16.84
2016-12-27T07:17:28.222Z,16.9
2016-12-27T07:18:08.792Z,16.83
2016-12-27T07:18:49.357Z,16.9
2016-12-27T07:19:29.941Z,16.93
2016-12-27T07:20:10.515Z,16.9
2016-12-27T07:20:51.096Z,17.01
2016-12-27T07:21:31.657Z,16.96
2016-12-27T07:22:12.231Z,16.86
2016-12-27T07:22:52.795Z,16.76
2016-12-27T07:23:33.378Z,16.78
2016-12-27T07:24:13.951Z,16.81
2016-12-27T07:24:54.515Z,16.79
2016-12-27T07:25:35.081Z,16.83
2016-12-27T07:26:15.649Z,16.86
2016-12-27T07:26:56.237Z,16.9
2016-12-27T07:27:36.823Z,16.84
2016-12-27T07:28:17.397Z,16.94
2016-12-27T07:28:57.965Z,16.93
2016-12-27T07:29:38.542Z,16.89
2016-12-27T07:30:19.113Z,16.84
2016-12-27T07:30:59.688Z,16.78
2016-12-27T07:31:40.259Z,16.79
2016-12-27T07:32:20.824Z,16.81
2016-12-27T07:33:01.394Z,16.91
2016-12-27T07:33:41.980Z,16.89
2016-12-27T07:34:22.558Z,16.86
2016-12-27T07:35:03.128Z,16.87
2016-12-27T07:35:43.721Z,16.86
2016-12-27T07:36:24.294Z,16.83
2016-12-27T07:37:04.860Z,16.97
2016-12-27T07:37:45.434Z,16.81
2016-12-27T07:38:26.018Z,16.86
2016-12-27T07:39:06.584Z,16.97
2016-12-27T07:39:47.155Z,16.99
2016-12-27T07:40:27.723Z,16.94
2016-12-27T07:41:08.301Z,16.87
2016-12-27T07:41:48.886Z,16.87
2016-12-27T07:42:29.444Z,16.99
2016-12-27T07:43:10.019Z,16.97
2016-12-27T07:43:50.593Z,16.89
2016-12-27T07:44:31.167Z,16.94
2016-12-27T07:45:11.744Z,16.84
2016-12-27T07:45:52.320Z,16.96
2016-12-27T07:46:32.892Z,16.99
2016-12-27T07:47:13.472Z,16.91
2016-12-27T07:47:54.038Z,16.91
2016-12-27T07:48:34.606Z,16.91
2016-12-27T07:49:15.183Z,17.01
2016-12-27T07:49:55.764Z,16.97
2016-12-27T07:50:36.353Z,16.78
2016-12-27T07:51:16.930Z,16.96
2016-12-27T07:51:57.494Z,16.93
2016-12-27T07:52:38.075Z,17.02
2016-12-27T07:53:18.650Z,16.83
2016-12-27T07:53:59.233Z,16.9
2016-12-27T07:54:39.806Z,16.9
2016-12-27T07:55:20.375Z,16.86
2016-12-27T07:56:00.949Z,16.96
2016-12-27T07:56:41.519Z,16.99
2016-12-27T07:57:22.085Z,16.9
2016-12-27T07:58:02.665Z,16.91
2016-12-27T07:58:43.244Z,17.04
2016-12-27T07:59:23.819Z,16.97
2016-12-27T08:00:04.381Z,16.93
2016-12-27T08:00:44.945Z,16.97
2016-12-27T08:01:25.519Z,17.04
2016-12-27T08:02:06.089Z,17.08
2016-12-27T08:02:46.658Z,17.02
2016-12-27T08:03:27.234Z,16.86
2016-12-27T08:04:07.796Z,17.04
2016-12-27T08:04:48.365Z,16.97
2016-12-27T08:05:28.961Z,17.02
2016-12-27T08:06:09.534Z,16.99
2016-12-27T08:06:50.105Z,16.97
2016-12-27T08:07:30.663Z,17.06
2016-12-27T08:08:11.244Z,16.96
2016-12-27T08:08:51.816Z,17.08
2016-12-27T08:09:32.388Z,17.01
2016-12-27T08:10:12.952Z,17.01
2016-12-27T08:10:53.519Z,16.99
2016-12-27T08:11:34.093Z,17.06
2016-12-27T08:12:14.667Z,17.08
2016-12-27T08:12:55.229Z,17.05
2016-12-27T08:13:35.808Z,17.16
2016-12-27T08:14:16.349Z,17.12
2016-12-27T08:14:56.924Z,17.14
2016-12-27T08:15:37.497Z,17.12
2016-12-27T08:16:18.073Z,17.14
2016-12-27T08:16:58.656Z,17.26
2016-12-27T08:17:39.229Z,17.27
2016-12-27T08:18:19.803Z,17.23
2016-12-27T08:19:00.380Z,17.23
2016-12-27T08:19:40.951Z,17.19
2016-12-27T08:20:21.536Z,17.12
2016-12-27T08:21:02.132Z,17.15
2016-12-27T08:21:42.706Z,17.27
2016-12-27T08:22:23.276Z,17.16
2016-12-27T08:23:03.840Z,17.06
2016-12-27T08:23:44.410Z,17.14
2016-12-27T08:24:24.986Z,17.14
2016-12-27T08:25:05.567Z,17.06
2016-12-27T08:25:46.139Z,17.15
2016-12-27T08:26:26.719Z,17.15
2016-12-27T08:27:07.308Z,17.22
2016-12-27T08:27:47.871Z,17.12
2016-12-27T08:28:28.444Z,17.3
2016-12-27T08:29:09.021Z,17.23
2016-12-27T08:29:49.603Z,17.23
2016-12-27T08:30:30.172Z,17.23
2016-12-27T08:31:10.751Z,17.29
2016-12-27T08:31:51.321Z,17.26
2016-12-27T08:32:31.902Z,17.31
2016-12-27T08:33:12.457Z,17.39
2016-12-27T08:33:53.036Z,17.33
2016-12-27T08:34:33.608Z,17.36
2016-12-27T08:35:14.192Z,17.41
2016-12-27T08:35:54.754Z,17.34
2016-12-27T08:36:35.318Z,17.34
2016-12-27T08:37:15.879Z,17.41
2016-12-27T08:37:56.446Z,17.41
2016-12-27T08:38:37.029Z,17.42
2016-12-27T08:39:17.612Z,17.54
2016-12-27T08:39:58.173Z,17.49
2016-12-27T08:40:38.749Z,17.48
2016-12-27T08:41:19.325Z,17.45
2016-12-27T08:41:59.914Z,17.44
2016-12-27T08:42:40.487Z,17.44
2016-12-27T08:43:21.067Z,17.52